sensor_id;sensor_type;location;lat;lon;timestamp;pressure;altitude;pressure_sealevel;temperature;humidity
11808;BME280;5961;42.640;23.380;2023-04-05T00:01:49;93500.88;;;0.74;100.00
11808;BME280;5961;42.640;23.380;2023-04-05T00:04:17;93500.78;;;0.79;100.00
11808;BME280;5961;42.640;23.380;2023-04-05T00:06:46;93504.47;;;0.78;100.00
11808;BME280;5961;42.640;23.380;2023-04-05T00:09:16;93496.34;;;0.79;100.00
11808;BME280;5961;42.640;23.380;2023-04-05T00:11:45;93446.19;;;0.59;100.00
11808;BME280;5961;42.640;23.380;2023-04-05T00:14:12;93523.19;;;0.85;100.00
11808;BME280;5961;42.640;23.380;2023-04-05T00:16:39;93530.63;;;0.78;100.00
11808;BME280;5961;42.640;23.380;2023-04-05T00:19:07;93498.59;;;0.67;100.00
11808;BME280;5961;42.640;23.380;2023-04-05T00:21:35;93512.13;;;0.74;100.00
11808;BME280;5961;42.640;23.380;2023-04-05T00:24:04;93489.94;;;0.72;100.00
11808;BME280;5961;42.640;23.380;2023-04-05T00:26:30;93509.59;;;0.69;100.00
11808;BME280;5961;42.640;23.380;2023-04-05T00:28:58;93488.84;;;0.73;100.00
11808;BME280;5961;42.640;23.380;2023-04-05T00:31:25;93496.34;;;0.79;100.00
11808;BME280;5961;42.640;23.380;2023-04-05T00:33:52;93502.34;;;0.80;100.00
11808;BME280;5961;42.640;23.380;2023-04-05T00:36:19;93443.09;;;0.38;100.00
11808;BME280;5961;42.640;23.380;2023-04-05T00:38:47;93505.06;;;0.75;100.00
11808;BME280;5961;42.640;23.380;2023-04-05T00:41:15;93513.16;;;0.73;100.00
11808;BME280;5961;42.640;23.380;2023-04-05T00:43:42;93523.22;;;0.66;100.00
11808;BME280;5961;42.640;23.380;2023-04-05T00:46:10;93503.84;;;0.67;100.00
11808;BME280;5961;42.640;23.380;2023-04-05T00:48:37;93507.16;;;0.73;100.00
11808;BME280;5961;42.640;23.380;2023-04-05T00:51:04;93490.75;;;0.48;100.00
11808;BME280;5961;42.640;23.380;2023-04-05T00:53:33;93508.50;;;0.70;100.00
11808;BME280;5961;42.640;23.380;2023-04-05T00:56:02;93520.31;;;0.68;100.00
11808;BME280;5961;42.640;23.380;2023-04-05T00:58:29;93486.66;;;0.61;100.00
11808;BME280;5961;42.640;23.380;2023-04-05T01:01:00;93523.97;;;0.67;100.00
11808;BME280;5961;42.640;23.380;2023-04-05T01:03:33;93502.31;;;0.66;100.00
11808;BME280;5961;42.640;23.380;2023-04-05T01:06:13;93511.97;;;0.66;100.00
11808;BME280;5961;42.640;23.380;2023-04-05T01:08:50;93498.22;;;0.60;100.00
11808;BME280;5961;42.640;23.380;2023-04-05T01:11:18;93504.19;;;0.61;100.00
11808;BME280;5961;42.640;23.380;2023-04-05T01:13:46;93506.25;;;0.64;100.00
11808;BME280;5961;42.640;23.380;2023-04-05T01:16:13;93496.44;;;0.55;100.00
11808;BME280;5961;42.640;23.380;2023-04-05T01:18:41;93492.53;;;0.53;100.00
11808;BME280;5961;42.640;23.380;2023-04-05T01:21:33;93492.75;;;0.57;100.00
11808;BME280;5961;42.640;23.380;2023-04-05T01:24:15;93512.03;;;0.61;100.00
11808;BME280;5961;42.640;23.380;2023-04-05T01:27:03;93506.25;;;0.64;100.00
11808;BME280;5961;42.640;23.380;2023-04-05T01:29:44;93514.06;;;0.64;100.00
11808;BME280;5961;42.640;23.380;2023-04-05T01:32:31;93502.09;;;0.63;100.00
11808;BME280;5961;42.640;23.380;2023-04-05T01:35:04;93510.28;;;0.75;100.00
11808;BME280;5961;42.640;23.380;2023-04-05T01:37:34;93512.53;;;0.63;100.00
11808;BME280;5961;42.640;23.380;2023-04-05T01:40:03;93517.91;;;0.71;100.00
11808;BME280;5961;42.640;23.380;2023-04-05T01:42:30;93496.69;;;0.73;100.00
11808;BME280;5961;42.640;23.380;2023-04-05T01:44:58;93516.28;;;0.75;100.00
11808;BME280;5961;42.640;23.380;2023-04-05T01:47:25;93509.59;;;0.69;100.00
11808;BME280;5961;42.640;23.380;2023-04-05T01:49:52;93506.97;;;0.69;100.00
11808;BME280;5961;42.640;23.380;2023-04-05T01:52:19;93504.06;;;0.71;100.00
11808;BME280;5961;42.640;23.380;2023-04-05T01:54:46;93512.81;;;0.80;100.00
11808;BME280;5961;42.640;23.380;2023-04-05T01:57:12;93507.31;;;0.81;100.00
11808;BME280;5961;42.640;23.380;2023-04-05T01:59:39;93537.34;;;0.84;99.99
11808;BME280;5961;42.640;23.380;2023-04-05T02:02:07;93517.47;;;0.83;99.44
11808;BME280;5961;42.640;23.380;2023-04-05T02:04:34;93544.28;;;0.75;99.50
11808;BME280;5961;42.640;23.380;2023-04-05T02:07:00;93530.41;;;0.74;99.91
11808;BME280;5961;42.640;23.380;2023-04-05T02:09:28;93495.38;;;0.57;100.00
11808;BME280;5961;42.640;23.380;2023-04-05T02:11:54;93515.44;;;0.80;100.00
11808;BME280;5961;42.640;23.380;2023-04-05T02:14:22;93512.38;;;0.73;99.61
11808;BME280;5961;42.640;23.380;2023-04-05T02:16:49;93516.47;;;0.79;99.82
11808;BME280;5961;42.640;23.380;2023-04-05T02:19:20;93524.41;;;0.74;99.33
11808;BME280;5961;42.640;23.380;2023-04-05T02:21:47;93518.03;;;0.80;99.58
11808;BME280;5961;42.640;23.380;2023-04-05T02:24:15;93525.97;;;0.75;99.70
11808;BME280;5961;42.640;23.380;2023-04-05T02:26:41;93493.03;;;0.55;100.00
11808;BME280;5961;42.640;23.380;2023-04-05T02:29:08;93508.38;;;0.80;100.00
11808;BME280;5961;42.640;23.380;2023-04-05T02:31:35;93511.75;;;0.81;100.00
11808;BME280;5961;42.640;23.380;2023-04-05T02:34:01;93505.25;;;0.78;100.00
11808;BME280;5961;42.640;23.380;2023-04-05T02:36:31;93520.44;;;0.76;100.00
11808;BME280;5961;42.640;23.380;2023-04-05T02:38:58;93488.56;;;0.55;100.00
11808;BME280;5961;42.640;23.380;2023-04-05T02:41:25;93527.31;;;0.72;100.00
11808;BME280;5961;42.640;23.380;2023-04-05T02:43:52;93549.78;;;0.73;100.00
11808;BME280;5961;42.640;23.380;2023-04-05T02:46:18;93520.31;;;0.68;100.00
11808;BME280;5961;42.640;23.380;2023-04-05T02:48:45;93517.00;;;0.81;100.00
11808;BME280;5961;42.640;23.380;2023-04-05T02:51:12;93541.81;;;0.83;100.00
11808;BME280;5961;42.640;23.380;2023-04-05T02:53:40;93512.25;;;0.83;100.00
11808;BME280;5961;42.640;23.380;2023-04-05T02:56:07;93510.06;;;0.90;99.67
11808;BME280;5961;42.640;23.380;2023-04-05T02:58:33;93510.13;;;0.85;99.89
11808;BME280;5961;42.640;23.380;2023-04-05T03:01:01;93488.84;;;0.73;99.94
11808;BME280;5961;42.640;23.380;2023-04-05T03:03:32;93500.22;;;0.82;99.88
11808;BME280;5961;42.640;23.380;2023-04-05T03:06:03;93508.50;;;0.89;100.00
11808;BME280;5961;42.640;23.380;2023-04-05T03:08:34;93509.53;;;0.88;100.00
11808;BME280;5961;42.640;23.380;2023-04-05T03:11:04;93517.41;;;0.88;100.00
11808;BME280;5961;42.640;23.380;2023-04-05T03:13:31;93545.13;;;0.89;99.71
11808;BME280;5961;42.640;23.380;2023-04-05T03:15:58;93516.13;;;0.85;99.87
11808;BME280;5961;42.640;23.380;2023-04-05T03:18:25;93517.34;;;0.93;99.69
11808;BME280;5961;42.640;23.380;2023-04-05T03:20:54;93521.78;;;0.92;99.79
11808;BME280;5961;42.640;23.380;2023-04-05T03:23:22;93516.19;;;0.99;99.72
11808;BME280;5961;42.640;23.380;2023-04-05T03:25:53;93503.03;;;1.04;100.00
11808;BME280;5961;42.640;23.380;2023-04-05T03:28:22;93517.16;;;1.03;99.75
11808;BME280;5961;42.640;23.380;2023-04-05T03:30:51;93502.47;;;1.07;99.47
11808;BME280;5961;42.640;23.380;2023-04-05T03:33:18;93471.44;;;0.82;99.40
11808;BME280;5961;42.640;23.380;2023-04-05T03:35:44;93533.16;;;1.01;99.70
11808;BME280;5961;42.640;23.380;2023-04-05T03:38:11;93510.47;;;0.97;99.75
11808;BME280;5961;42.640;23.380;2023-04-05T03:40:38;93530.75;;;1.05;100.00
11808;BME280;5961;42.640;23.380;2023-04-05T03:43:05;93504.75;;;0.95;100.00
11808;BME280;5961;42.640;23.380;2023-04-05T03:45:33;93539.66;;;1.04;100.00
11808;BME280;5961;42.640;23.380;2023-04-05T03:48:00;93516.03;;;1.09;100.00
11808;BME280;5961;42.640;23.380;2023-04-05T03:50:27;93526.56;;;1.04;100.00
11808;BME280;5961;42.640;23.380;2023-04-05T03:52:54;93538.09;;;1.03;100.00
11808;BME280;5961;42.640;23.380;2023-04-05T03:55:20;93532.81;;;1.08;100.00
11808;BME280;5961;42.640;23.380;2023-04-05T03:57:47;93531.31;;;1.02;100.00
11808;BME280;5961;42.640;23.380;2023-04-05T04:00:14;93529.75;;;1.01;100.00
11808;BME280;5961;42.640;23.380;2023-04-05T04:02:44;93561.06;;;1.06;100.00
11808;BME280;5961;42.640;23.380;2023-04-05T04:05:11;93520.44;;;0.95;100.00
11808;BME280;5961;42.640;23.380;2023-04-05T04:07:39;93527.63;;;1.03;100.00
11808;BME280;5961;42.640;23.380;2023-04-05T04:10:07;93553.41;;;0.96;100.00
11808;BME280;5961;42.640;23.380;2023-04-05T04:12:34;93533.66;;;1.03;100.00
11808;BME280;5961;42.640;23.380;2023-04-05T04:15:02;93542.38;;;0.99;100.00
11808;BME280;5961;42.640;23.380;2023-04-05T04:17:30;93520.56;;;0.85;100.00
11808;BME280;5961;42.640;23.380;2023-04-05T04:19:58;93533.03;;;0.93;100.00
11808;BME280;5961;42.640;23.380;2023-04-05T04:22:26;93523.13;;;0.90;100.00
11808;BME280;5961;42.640;23.380;2023-04-05T04:24:57;93526.03;;;0.88;100.00
11808;BME280;5961;42.640;23.380;2023-04-05T04:27:27;93533.38;;;0.86;100.00
11808;BME280;5961;42.640;23.380;2023-04-05T04:29:54;93534.56;;;0.94;100.00
11808;BME280;5961;42.640;23.380;2023-04-05T04:32:27;93532.03;;;0.89;100.00
11808;BME280;5961;42.640;23.380;2023-04-05T04:35:13;93551.81;;;0.95;100.00
11808;BME280;5961;42.640;23.380;2023-04-05T04:37:44;93558.63;;;0.96;100.00
11808;BME280;5961;42.640;23.380;2023-04-05T04:40:12;93547.03;;;1.02;100.00
11808;BME280;5961;42.640;23.380;2023-04-05T04:42:41;93547.59;;;0.99;100.00
11808;BME280;5961;42.640;23.380;2023-04-05T04:45:11;93528.28;;;0.95;100.00
11808;BME280;5961;42.640;23.380;2023-04-05T04:47:41;93552.19;;;1.07;100.00
11808;BME280;5961;42.640;23.380;2023-04-05T04:50:08;93486.78;;;0.70;100.00
11808;BME280;5961;42.640;23.380;2023-04-05T04:52:37;93540.66;;;1.08;100.00
11808;BME280;5961;42.640;23.380;2023-04-05T04:55:05;93561.59;;;1.08;100.00
11808;BME280;5961;42.640;23.380;2023-04-05T04:57:32;93558.53;;;1.01;100.00
11808;BME280;5961;42.640;23.380;2023-04-05T04:59:59;93509.28;;;0.71;100.00
11808;BME280;5961;42.640;23.380;2023-04-05T05:02:26;93523.19;;;0.85;100.00
11808;BME280;5961;42.640;23.380;2023-04-05T05:04:53;93552.19;;;1.07;100.00
11808;BME280;5961;42.640;23.380;2023-04-05T05:07:20;93557.28;;;0.98;99.54
11808;BME280;5961;42.640;23.380;2023-04-05T05:09:48;93572.28;;;1.12;99.02
11808;BME280;5961;42.640;23.380;2023-04-05T05:12:18;93573.41;;;1.05;97.61
11808;BME280;5961;42.640;23.380;2023-04-05T05:14:45;93583.94;;;1.00;98.61
11808;BME280;5961;42.640;23.380;2023-04-05T05:17:11;93562.72;;;1.02;98.91
11808;BME280;5961;42.640;23.380;2023-04-05T05:19:38;93572.63;;;1.05;99.37
11808;BME280;5961;42.640;23.380;2023-04-05T05:22:05;93553.88;;;0.98;99.47
11808;BME280;5961;42.640;23.380;2023-04-05T05:24:32;93601.63;;;1.08;99.67
11808;BME280;5961;42.640;23.380;2023-04-05T05:27:00;93575.06;;;1.15;100.00
11808;BME280;5961;42.640;23.380;2023-04-05T05:29:26;93562.00;;;1.15;99.98
11808;BME280;5961;42.640;23.380;2023-04-05T05:31:53;93558.53;;;1.20;99.88
11808;BME280;5961;42.640;23.380;2023-04-05T05:34:20;93568.34;;;1.09;99.11
11808;BME280;5961;42.640;23.380;2023-04-05T05:36:47;93575.72;;;1.26;98.32
11808;BME280;5961;42.640;23.380;2023-04-05T05:39:14;93585.88;;;1.27;97.88
11808;BME280;5961;42.640;23.380;2023-04-05T05:41:41;93562.00;;;1.15;97.52
11808;BME280;5961;42.640;23.380;2023-04-05T05:44:09;93543.84;;;1.05;97.63
11808;BME280;5961;42.640;23.380;2023-04-05T05:46:35;93577.53;;;1.25;97.64
11808;BME280;5961;42.640;23.380;2023-04-05T05:49:02;93553.28;;;1.20;97.55
11808;BME280;5961;42.640;23.380;2023-04-05T05:51:29;93542.69;;;1.11;97.98
11808;BME280;5961;42.640;23.380;2023-04-05T05:53:56;93559.78;;;1.22;97.75
11808;BME280;5961;42.640;23.380;2023-04-05T05:56:23;93565.47;;;1.29;97.05
11808;BME280;5961;42.640;23.380;2023-04-05T05:58:50;93503.97;;;0.94;96.87
11808;BME280;5961;42.640;23.380;2023-04-05T06:01:18;93565.09;;;1.36;96.16
11808;BME280;5961;42.640;23.380;2023-04-05T06:03:47;93566.34;;;1.38;96.09
11808;BME280;5961;42.640;23.380;2023-04-05T06:06:14;93549.56;;;1.39;95.23
11808;BME280;5961;42.640;23.380;2023-04-05T06:08:41;93593.34;;;1.52;95.50
11808;BME280;5961;42.640;23.380;2023-04-05T06:11:18;93561.56;;;1.59;94.81
11808;BME280;5961;42.640;23.380;2023-04-05T06:13:46;93545.22;;;1.48;94.57
11808;BME280;5961;42.640;23.380;2023-04-05T06:16:12;93582.34;;;1.69;93.44
11808;BME280;5961;42.640;23.380;2023-04-05T06:18:40;93573.63;;;1.74;92.63
11808;BME280;5961;42.640;23.380;2023-04-05T06:21:07;93581.38;;;1.79;93.17
11808;BME280;5961;42.640;23.380;2023-04-05T06:23:34;93599.16;;;1.82;92.37
11808;BME280;5961;42.640;23.380;2023-04-05T06:26:01;93584.31;;;1.91;91.89
11808;BME280;5961;42.640;23.380;2023-04-05T06:28:28;93580.66;;;1.92;90.47
11808;BME280;5961;42.640;23.380;2023-04-05T06:30:56;93591.03;;;1.97;91.20
11808;BME280;5961;42.640;23.380;2023-04-05T06:33:23;93582.09;;;1.98;91.13
11808;BME280;5961;42.640;23.380;2023-04-05T06:35:51;93587.44;;;2.06;91.11
11808;BME280;5961;42.640;23.380;2023-04-05T06:38:18;93602.41;;;2.06;90.67
11808;BME280;5961;42.640;23.380;2023-04-05T06:40:45;93593.88;;;2.14;90.14
11808;BME280;5961;42.640;23.380;2023-04-05T06:43:11;93600.06;;;2.18;89.32
11808;BME280;5961;42.640;23.380;2023-04-05T06:45:38;93588.91;;;2.12;89.15
11808;BME280;5961;42.640;23.380;2023-04-05T06:48:06;93594.09;;;2.17;87.89
11808;BME280;5961;42.640;23.380;2023-04-05T06:50:33;93612.72;;;2.16;87.98
11808;BME280;5961;42.640;23.380;2023-04-05T06:53:02;93608.81;;;2.13;87.77
11808;BME280;5961;42.640;23.380;2023-04-05T06:55:29;93601.38;;;2.20;87.00
11808;BME280;5961;42.640;23.380;2023-04-05T06:57:55;93614.06;;;2.27;87.26
11808;BME280;5961;42.640;23.380;2023-04-05T07:00:22;93613.09;;;2.23;87.67
11808;BME280;5961;42.640;23.380;2023-04-05T07:02:49;93618.72;;;2.30;87.75
11808;BME280;5961;42.640;23.380;2023-04-05T07:05:16;93618.25;;;2.28;87.05
11808;BME280;5961;42.640;23.380;2023-04-05T07:07:42;93630.50;;;2.33;86.70
11808;BME280;5961;42.640;23.380;2023-04-05T07:10:11;93641.47;;;2.35;85.45
11808;BME280;5961;42.640;23.380;2023-04-05T07:12:38;93639.69;;;2.30;84.82
11808;BME280;5961;42.640;23.380;2023-04-05T07:15:06;93634.66;;;2.34;84.50
11808;BME280;5961;42.640;23.380;2023-04-05T07:17:33;93625.53;;;2.31;85.38
11808;BME280;5961;42.640;23.380;2023-04-05T07:19:59;93635.66;;;2.38;85.47
11808;BME280;5961;42.640;23.380;2023-04-05T07:22:26;93645.06;;;2.39;85.29
11808;BME280;5961;42.640;23.380;2023-04-05T07:24:53;93658.66;;;2.41;85.28
11808;BME280;5961;42.640;23.380;2023-04-05T07:27:21;93648.44;;;2.39;84.37
11808;BME280;5961;42.640;23.380;2023-04-05T07:29:48;93643.72;;;2.41;83.86
11808;BME280;5961;42.640;23.380;2023-04-05T07:32:14;93671.47;;;2.42;84.02
11808;BME280;5961;42.640;23.380;2023-04-05T07:34:41;93641.16;;;2.36;83.77
11808;BME280;5961;42.640;23.380;2023-04-05T07:37:08;93694.13;;;2.38;84.57
11808;BME280;5961;42.640;23.380;2023-04-05T07:39:34;93647.00;;;2.33;83.92
11808;BME280;5961;42.640;23.380;2023-04-05T07:42:01;93655.84;;;2.37;84.34
11808;BME280;5961;42.640;23.380;2023-04-05T07:44:29;93678.09;;;2.40;83.53
11808;BME280;5961;42.640;23.380;2023-04-05T07:46:56;93671.09;;;2.35;82.86
11808;BME280;5961;42.640;23.380;2023-04-05T07:49:26;93653.31;;;2.32;83.02
11808;BME280;5961;42.640;23.380;2023-04-05T07:51:54;93672.34;;;2.38;83.52
11808;BME280;5961;42.640;23.380;2023-04-05T07:54:21;93656.81;;;2.41;84.25
11808;BME280;5961;42.640;23.380;2023-04-05T07:56:48;93619.50;;;2.17;84.22
11808;BME280;5961;42.640;23.380;2023-04-05T07:59:15;93637.75;;;2.22;84.63
11808;BME280;5961;42.640;23.380;2023-04-05T08:01:43;93680.50;;;2.36;83.42
11808;BME280;5961;42.640;23.380;2023-04-05T08:04:10;93666.34;;;2.37;83.78
11808;BME280;5961;42.640;23.380;2023-04-05T08:06:36;93682.53;;;2.39;83.96
11808;BME280;5961;42.640;23.380;2023-04-05T08:09:04;93668.84;;;2.42;83.79
11808;BME280;5961;42.640;23.380;2023-04-05T08:11:32;93677.44;;;2.48;82.90
11808;BME280;5961;42.640;23.380;2023-04-05T08:13:59;93684.69;;;2.37;81.89
11808;BME280;5961;42.640;23.380;2023-04-05T08:16:26;93687.22;;;2.42;82.37
11808;BME280;5961;42.640;23.380;2023-04-05T08:18:54;93697.22;;;2.40;81.34
11808;BME280;5961;42.640;23.380;2023-04-05T08:21:21;93645.47;;;2.00;81.95
11808;BME280;5961;42.640;23.380;2023-04-05T08:23:48;93680.91;;;2.30;82.66
11808;BME280;5961;42.640;23.380;2023-04-05T08:26:15;93680.72;;;2.40;82.99
11808;BME280;5961;42.640;23.380;2023-04-05T08:28:42;93745.38;;;2.31;82.08
11808;BME280;5961;42.640;23.380;2023-04-05T08:31:09;93693.91;;;2.35;82.81
11808;BME280;5961;42.640;23.380;2023-04-05T08:33:36;93672.34;;;2.38;84.12
11808;BME280;5961;42.640;23.380;2023-04-05T08:36:05;93673.78;;;2.30;83.90
11808;BME280;5961;42.640;23.380;2023-04-05T08:38:33;93690.50;;;2.34;83.20
11808;BME280;5961;42.640;23.380;2023-04-05T08:41:06;93704.19;;;2.31;83.18
11808;BME280;5961;42.640;23.380;2023-04-05T08:43:43;93653.84;;;2.02;83.72
11808;BME280;5961;42.640;23.380;2023-04-05T08:46:14;93701.41;;;2.41;84.02
11808;BME280;5961;42.640;23.380;2023-04-05T08:48:41;93698.78;;;2.41;83.35
11808;BME280;5961;42.640;23.380;2023-04-05T08:51:10;93703.53;;;2.39;83.61
11808;BME280;5961;42.640;23.380;2023-04-05T08:53:37;93719.25;;;2.39;83.15
11808;BME280;5961;42.640;23.380;2023-04-05T08:56:04;93705.75;;;2.32;83.83
11808;BME280;5961;42.640;23.380;2023-04-05T08:58:34;93715.88;;;2.39;84.37
11808;BME280;5961;42.640;23.380;2023-04-05T09:01:04;93736.56;;;2.40;84.13
11808;BME280;5961;42.640;23.380;2023-04-05T09:03:35;93721.88;;;2.39;82.78
11808;BME280;5961;42.640;23.380;2023-04-05T09:06:06;93718.69;;;2.42;83.17
11808;BME280;5961;42.640;23.380;2023-04-05T09:08:37;93745.41;;;2.44;82.95
11808;BME280;5961;42.640;23.380;2023-04-05T09:11:04;93723.94;;;2.42;82.68
11808;BME280;5961;42.640;23.380;2023-04-05T09:13:31;93690.03;;;2.32;84.01
11808;BME280;5961;42.640;23.380;2023-04-05T09:16:00;93715.00;;;2.43;85.91
11808;BME280;5961;42.640;23.380;2023-04-05T09:18:26;93735.56;;;2.36;85.36
11808;BME280;5961;42.640;23.380;2023-04-05T09:21:01;93704.97;;;2.32;84.67
11808;BME280;5961;42.640;23.380;2023-04-05T09:23:28;93717.94;;;2.42;85.54
11808;BME280;5961;42.640;23.380;2023-04-05T09:25:56;93718.97;;;2.41;85.91
11808;BME280;5961;42.640;23.380;2023-04-05T09:28:38;93727.06;;;2.44;86.28
11808;BME280;5961;42.640;23.380;2023-04-05T09:31:05;93718.19;;;2.40;85.66
11808;BME280;5961;42.640;23.380;2023-04-05T09:33:33;93729.69;;;2.44;85.66
11808;BME280;5961;42.640;23.380;2023-04-05T09:35:59;93714.53;;;2.41;86.03
11808;BME280;5961;42.640;23.380;2023-04-05T09:38:41;93721.59;;;2.41;85.83
11808;BME280;5961;42.640;23.380;2023-04-05T09:41:09;93720.34;;;2.52;85.18
11808;BME280;5961;42.640;23.380;2023-04-05T09:43:37;93726.38;;;2.52;84.21
11808;BME280;5961;42.640;23.380;2023-04-05T09:46:04;93715.88;;;2.52;83.44
11808;BME280;5961;42.640;23.380;2023-04-05T09:48:45;93709.97;;;2.60;85.07
11808;BME280;5961;42.640;23.380;2023-04-05T09:51:13;93719.19;;;2.58;84.69
11808;BME280;5961;42.640;23.380;2023-04-05T09:53:57;93721.53;;;2.59;84.40
11808;BME280;5961;42.640;23.380;2023-04-05T09:56:26;93733.56;;;2.60;84.08
11808;BME280;5961;42.640;23.380;2023-04-05T09:58:57;93712.00;;;2.63;84.87
11808;BME280;5961;42.640;23.380;2023-04-05T10:01:26;93727.00;;;2.76;85.34
11808;BME280;5961;42.640;23.380;2023-04-05T10:03:53;93746.41;;;2.75;84.86
11808;BME280;5961;42.640;23.380;2023-04-05T10:06:22;93711.66;;;2.84;84.10
11808;BME280;5961;42.640;23.380;2023-04-05T10:08:50;93719.41;;;2.89;82.94
11808;BME280;5961;42.640;23.380;2023-04-05T10:11:17;93721.72;;;2.90;82.59
11808;BME280;5961;42.640;23.380;2023-04-05T10:13:48;93729.91;;;2.89;81.57
11808;BME280;5961;42.640;23.380;2023-04-05T10:16:20;93723.59;;;2.90;82.16
11808;BME280;5961;42.640;23.380;2023-04-05T10:18:49;93733.22;;;2.94;82.77
11808;BME280;5961;42.640;23.380;2023-04-05T10:21:20;93727.97;;;2.81;81.64
11808;BME280;5961;42.640;23.380;2023-04-05T10:23:54;93718.63;;;2.88;80.93
11808;BME280;5961;42.640;23.380;2023-04-05T10:26:35;93729.50;;;2.82;79.10
11808;BME280;5961;42.640;23.380;2023-04-05T10:29:08;93734.56;;;2.64;78.69
11808;BME280;5961;42.640;23.380;2023-04-05T10:31:45;93747.56;;;2.56;79.27
11808;BME280;5961;42.640;23.380;2023-04-05T10:34:23;93731.72;;;2.47;79.96
11808;BME280;5961;42.640;23.380;2023-04-05T10:36:57;93749.72;;;2.54;80.51
11808;BME280;5961;42.640;23.380;2023-04-05T10:39:27;93731.63;;;2.52;79.68
11808;BME280;5961;42.640;23.380;2023-04-05T10:41:59;93723.28;;;2.50;79.43
11808;BME280;5961;42.640;23.380;2023-04-05T10:44:29;93690.41;;;2.39;79.33
11808;BME280;5961;42.640;23.380;2023-04-05T10:46:57;93769.22;;;2.48;79.33
11808;BME280;5961;42.640;23.380;2023-04-05T10:49:31;93750.00;;;2.52;80.45
11808;BME280;5961;42.640;23.380;2023-04-05T10:52:00;93727.53;;;2.60;79.97
11808;BME280;5961;42.640;23.380;2023-04-05T10:54:27;93696.66;;;2.43;79.12
11808;BME280;5961;42.640;23.380;2023-04-05T10:56:55;93719.69;;;2.73;79.57
11808;BME280;5961;42.640;23.380;2023-04-05T10:59:23;93694.91;;;2.52;78.75
11808;BME280;5961;42.640;23.380;2023-04-05T11:01:53;93727.00;;;2.76;79.29
11808;BME280;5961;42.640;23.380;2023-04-05T11:04:20;93758.09;;;2.83;79.24
11808;BME280;5961;42.640;23.380;2023-04-05T11:06:48;93742.75;;;2.76;79.32
11808;BME280;5961;42.640;23.380;2023-04-05T11:09:34;93760.94;;;2.87;79.57
11808;BME280;5961;42.640;23.380;2023-04-05T11:12:00;93752.16;;;2.91;78.84
11808;BME280;5961;42.640;23.380;2023-04-05T11:14:34;93735.94;;;3.03;78.49
11808;BME280;5961;42.640;23.380;2023-04-05T11:17:03;93712.81;;;2.91;79.12
11808;BME280;5961;42.640;23.380;2023-04-05T11:19:48;93759.47;;;3.08;79.62
11808;BME280;5961;42.640;23.380;2023-04-05T11:22:24;93748.56;;;3.14;78.86
11808;BME280;5961;42.640;23.380;2023-04-05T11:24:53;93725.13;;;3.18;78.00
11808;BME280;5961;42.640;23.380;2023-04-05T11:27:24;93691.72;;;2.83;78.60
11808;BME280;5961;42.640;23.380;2023-04-05T11:29:52;93755.38;;;3.15;77.68
11808;BME280;5961;42.640;23.380;2023-04-05T11:32:21;93747.97;;;3.17;78.80
11808;BME280;5961;42.640;23.380;2023-04-05T11:34:57;93753.44;;;3.21;76.71
11808;BME280;5961;42.640;23.380;2023-04-05T11:37:52;93755.78;;;3.22;77.03
11808;BME280;5961;42.640;23.380;2023-04-05T11:40:24;93709.41;;;2.91;77.28
11808;BME280;5961;42.640;23.380;2023-04-05T11:42:58;93735.63;;;3.18;77.39
11808;BME280;5961;42.640;23.380;2023-04-05T11:45:25;93754.22;;;3.21;77.22
11808;BME280;5961;42.640;23.380;2023-04-05T11:47:53;93719.31;;;3.21;77.91
11808;BME280;5961;42.640;23.380;2023-04-05T11:50:20;93751.91;;;3.20;77.12
11808;BME280;5961;42.640;23.380;2023-04-05T11:53:08;93749.75;;;3.22;77.04
11808;BME280;5961;42.640;23.380;2023-04-05T11:55:35;93744.88;;;3.29;77.59
11808;BME280;5961;42.640;23.380;2023-04-05T11:58:02;93737.69;;;3.21;77.64
11808;BME280;5961;42.640;23.380;2023-04-05T12:00:36;93737.88;;;3.24;77.23
11808;BME280;5961;42.640;23.380;2023-04-05T12:03:04;93736.81;;;3.25;76.63
11808;BME280;5961;42.640;23.380;2023-04-05T12:05:44;93711.13;;;3.09;77.03
11808;BME280;5961;42.640;23.380;2023-04-05T12:08:11;93747.59;;;3.24;77.37
11808;BME280;5961;42.640;23.380;2023-04-05T12:10:37;93741.09;;;3.35;77.22
11808;BME280;5961;42.640;23.380;2023-04-05T12:13:04;93739.91;;;3.41;77.18
11808;BME280;5961;42.640;23.380;2023-04-05T12:15:36;93700.84;;;3.26;76.95
11808;BME280;5961;42.640;23.380;2023-04-05T12:18:04;93751.16;;;3.55;77.04
11808;BME280;5961;42.640;23.380;2023-04-05T12:20:32;93743.16;;;3.60;77.06
11808;BME280;5961;42.640;23.380;2023-04-05T12:22:59;93724.97;;;3.64;77.07
11808;BME280;5961;42.640;23.380;2023-04-05T12:25:27;93735.19;;;3.65;77.60
11808;BME280;5961;42.640;23.380;2023-04-05T12:27:54;93752.81;;;3.65;76.88
11808;BME280;5961;42.640;23.380;2023-04-05T12:30:21;93739.28;;;3.71;77.08
11808;BME280;5961;42.640;23.380;2023-04-05T12:32:50;93729.34;;;3.68;77.38
11808;BME280;5961;42.640;23.380;2023-04-05T12:35:19;93747.22;;;3.80;77.15
11808;BME280;5961;42.640;23.380;2023-04-05T12:37:46;93746.09;;;3.95;76.65
11808;BME280;5961;42.640;23.380;2023-04-05T12:40:18;93748.84;;;3.90;76.65
11808;BME280;5961;42.640;23.380;2023-04-05T12:42:45;93742.88;;;3.98;76.64
11808;BME280;5961;42.640;23.380;2023-04-05T12:45:13;93735.91;;;4.15;76.52
11808;BME280;5961;42.640;23.380;2023-04-05T12:47:47;93753.16;;;4.30;76.32
11808;BME280;5961;42.640;23.380;2023-04-05T12:50:15;93744.44;;;4.21;75.91
11808;BME280;5961;42.640;23.380;2023-04-05T12:52:54;93759.28;;;4.17;75.92
11808;BME280;5961;42.640;23.380;2023-04-05T12:55:21;93746.81;;;4.09;76.23
11808;BME280;5961;42.640;23.380;2023-04-05T12:57:49;93757.84;;;4.11;76.55
11808;BME280;5961;42.640;23.380;2023-04-05T13:00:17;93766.91;;;4.05;76.36
11808;BME280;5961;42.640;23.380;2023-04-05T13:02:48;93731.97;;;4.04;76.12
11808;BME280;5961;42.640;23.380;2023-04-05T13:05:15;93751.53;;;4.20;75.43
11808;BME280;5961;42.640;23.380;2023-04-05T13:07:42;93753.25;;;4.16;75.88
11808;BME280;5961;42.640;23.380;2023-04-05T13:10:10;93747.00;;;4.12;76.58
11808;BME280;5961;42.640;23.380;2023-04-05T13:12:37;93764.34;;;4.13;75.38
11808;BME280;5961;42.640;23.380;2023-04-05T13:15:05;93740.63;;;4.05;75.48
11808;BME280;5961;42.640;23.380;2023-04-05T13:17:32;93741.56;;;4.09;74.78